sensor_id;sensor_type;location;lat;lon;timestamp;P1;durP1;ratioP1;P2;durP2;ratioP2
63653;SDS011;49809;47.418;19.080;2023-08-31T00:01:00;7.60;;;4.57;;
63653;SDS011;49809;47.418;19.080;2023-08-31T00:04:31;7.68;;;4.90;;
63653;SDS011;49809;47.418;19.080;2023-08-31T00:07:54;9.35;;;4.75;;
63653;SDS011;49809;47.418;19.080;2023-08-31T00:11:19;9.52;;;4.68;;
63653;SDS011;49809;47.418;19.080;2023-08-31T00:14:50;6.12;;;4.22;;
63653;SDS011;49809;47.418;19.080;2023-08-31T00:18:30;7.57;;;4.80;;
63653;SDS011;49809;47.418;19.080;2023-08-31T00:21:45;8.30;;;3.95;;
63653;SDS011;49809;47.418;19.080;2023-08-31T00:25:24;6.78;;;4.32;;
63653;SDS011;49809;47.418;19.080;2023-08-31T00:28:39;7.43;;;4.87;;
63653;SDS011;49809;47.418;19.080;2023-08-31T00:32:13;8.20;;;4.87;;
63653;SDS011;49809;47.418;19.080;2023-08-31T00:35:46;7.07;;;4.90;;
63653;SDS011;49809;47.418;19.080;2023-08-31T00:39:13;7.17;;;4.60;;
63653;SDS011;49809;47.418;19.080;2023-08-31T00:42:40;6.90;;;4.28;;
63653;SDS011;49809;47.418;19.080;2023-08-31T00:46:20;5.75;;;4.10;;
63653;SDS011;49809;47.418;19.080;2023-08-31T00:49:54;7.22;;;3.95;;
63653;SDS011;49809;47.418;19.080;2023-08-31T00:53:24;8.23;;;4.30;;
63653;SDS011;49809;47.418;19.080;2023-08-31T00:56:39;7.10;;;4.07;;
63653;SDS011;49809;47.418;19.080;2023-08-31T01:00:12;6.82;;;4.22;;
63653;SDS011;49809;47.418;19.080;2023-08-31T01:14:54;6.97;;;4.43;;
63653;SDS011;49809;47.418;19.080;2023-08-31T01:18:26;6.47;;;4.15;;
63653;SDS011;49809;47.418;19.080;2023-08-31T01:22:02;7.93;;;4.53;;
63653;SDS011;49809;47.418;19.080;2023-08-31T01:25:45;7.70;;;4.30;;
63653;SDS011;49809;47.418;19.080;2023-08-31T01:29:13;6.95;;;4.30;;
63653;SDS011;49809;47.418;19.080;2023-08-31T01:32:44;7.62;;;4.87;;
63653;SDS011;49809;47.418;19.080;2023-08-31T01:40:06;7.75;;;4.53;;
63653;SDS011;49809;47.418;19.080;2023-08-31T01:44:08;7.45;;;4.57;;
63653;SDS011;49809;47.418;19.080;2023-08-31T01:47:37;6.50;;;4.35;;
63653;SDS011;49809;47.418;19.080;2023-08-31T01:51:11;5.57;;;3.87;;
63653;SDS011;49809;47.418;19.080;2023-08-31T01:54:41;6.57;;;4.37;;
63653;SDS011;49809;47.418;19.080;2023-08-31T01:58:15;5.87;;;3.83;;
63653;SDS011;49809;47.418;19.080;2023-08-31T02:01:48;7.45;;;3.53;;
63653;SDS011;49809;47.418;19.080;2023-08-31T02:05:15;5.78;;;3.90;;
63653;SDS011;49809;47.418;19.080;2023-08-31T02:08:49;5.95;;;3.15;;
63653;SDS011;49809;47.418;19.080;2023-08-31T02:12:16;6.80;;;3.45;;
63653;SDS011;49809;47.418;19.080;2023-08-31T02:15:44;4.72;;;3.45;;
63653;SDS011;49809;47.418;19.080;2023-08-31T02:19:11;4.82;;;3.35;;
63653;SDS011;49809;47.418;19.080;2023-08-31T02:22:44;4.10;;;2.87;;
63653;SDS011;49809;47.418;19.080;2023-08-31T02:26:08;5.10;;;2.87;;
63653;SDS011;49809;47.418;19.080;2023-08-31T02:29:34;4.80;;;3.30;;
63653;SDS011;49809;47.418;19.080;2023-08-31T02:32:58;4.30;;;3.25;;
63653;SDS011;49809;47.418;19.080;2023-08-31T02:36:37;4.25;;;3.28;;
63653;SDS011;49809;47.418;19.080;2023-08-31T02:39:52;5.95;;;3.40;;
63653;SDS011;49809;47.418;19.080;2023-08-31T02:43:20;6.30;;;3.50;;
63653;SDS011;49809;47.418;19.080;2023-08-31T02:47:00;6.25;;;3.33;;
63653;SDS011;49809;47.418;19.080;2023-08-31T02:50:35;6.05;;;3.65;;
63653;SDS011;49809;47.418;19.080;2023-08-31T02:54:07;4.80;;;3.50;;
63653;SDS011;49809;47.418;19.080;2023-08-31T02:57:21;5.60;;;4.10;;
63653;SDS011;49809;47.418;19.080;2023-08-31T03:04:33;5.28;;;4.07;;
63653;SDS011;49809;47.418;19.080;2023-08-31T03:07:48;7.50;;;4.22;;
63653;SDS011;49809;47.418;19.080;2023-08-31T03:11:15;6.45;;;4.12;;
63653;SDS011;49809;47.418;19.080;2023-08-31T03:14:42;10.07;;;5.03;;
63653;SDS011;49809;47.418;19.080;2023-08-31T03:18:08;6.00;;;4.00;;
63653;SDS011;49809;47.418;19.080;2023-08-31T03:21:36;6.20;;;3.95;;
63653;SDS011;49809;47.418;19.080;2023-08-31T03:25:09;7.85;;;4.30;;
63653;SDS011;49809;47.418;19.080;2023-08-31T03:28:37;6.20;;;4.12;;
63653;SDS011;49809;47.418;19.080;2023-08-31T03:32:06;7.90;;;4.30;;
63653;SDS011;49809;47.418;19.080;2023-08-31T03:35:36;7.97;;;4.60;;
63653;SDS011;49809;47.418;19.080;2023-08-31T03:39:16;5.78;;;3.85;;
63653;SDS011;49809;47.418;19.080;2023-08-31T03:42:43;5.37;;;3.93;;
63653;SDS011;49809;47.418;19.080;2023-08-31T03:46:13;6.20;;;4.10;;
63653;SDS011;49809;47.418;19.080;2023-08-31T03:49:40;5.62;;;4.43;;
63653;SDS011;49809;47.418;19.080;2023-08-31T03:53:07;6.85;;;4.12;;
63653;SDS011;49809;47.418;19.080;2023-08-31T03:56:35;6.37;;;4.30;;
63653;SDS011;49809;47.418;19.080;2023-08-31T03:59:59;6.68;;;4.37;;
63653;SDS011;49809;47.418;19.080;2023-08-31T04:03:23;6.20;;;4.47;;
63653;SDS011;49809;47.418;19.080;2023-08-31T04:07:04;6.00;;;4.35;;
63653;SDS011;49809;47.418;19.080;2023-08-31T04:10:19;9.23;;;4.25;;
63653;SDS011;49809;47.418;19.080;2023-08-31T04:13:46;5.37;;;4.18;;
63653;SDS011;49809;47.418;19.080;2023-08-31T04:17:16;7.97;;;4.15;;
63653;SDS011;49809;47.418;19.080;2023-08-31T04:20:51;6.35;;;4.32;;
63653;SDS011;49809;47.418;19.080;2023-08-31T04:24:21;5.35;;;3.90;;
63653;SDS011;49809;47.418;19.080;2023-08-31T04:27:54;5.53;;;4.20;;
63653;SDS011;49809;47.418;19.080;2023-08-31T04:31:23;5.40;;;4.03;;
63653;SDS011;49809;47.418;19.080;2023-08-31T04:34:47;6.37;;;3.90;;
63653;SDS011;49809;47.418;19.080;2023-08-31T04:38:14;4.50;;;3.60;;
63653;SDS011;49809;47.418;19.080;2023-08-31T04:41:41;4.78;;;3.22;;
63653;SDS011;49809;47.418;19.080;2023-08-31T04:45:14;5.28;;;3.53;;
63653;SDS011;49809;47.418;19.080;2023-08-31T04:48:41;4.75;;;3.30;;
63653;SDS011;49809;47.418;19.080;2023-08-31T04:52:14;7.72;;;3.20;;
63653;SDS011;49809;47.418;19.080;2023-08-31T04:55:34;3.87;;;3.22;;
63653;SDS011;49809;47.418;19.080;2023-08-31T04:58:52;7.10;;;3.33;;
63653;SDS011;49809;47.418;19.080;2023-08-31T05:02:12;5.85;;;3.05;;
63653;SDS011;49809;47.418;19.080;2023-08-31T05:05:46;3.92;;;3.28;;
63653;SDS011;49809;47.418;19.080;2023-08-31T05:09:19;5.32;;;3.40;;
63653;SDS011;49809;47.418;19.080;2023-08-31T05:12:43;4.55;;;3.53;;
63653;SDS011;49809;47.418;19.080;2023-08-31T05:16:17;4.75;;;3.35;;
63653;SDS011;49809;47.418;19.080;2023-08-31T05:19:44;4.97;;;3.97;;
63653;SDS011;49809;47.418;19.080;2023-08-31T05:23:18;5.22;;;3.37;;
63653;SDS011;49809;47.418;19.080;2023-08-31T05:26:43;4.25;;;2.80;;
63653;SDS011;49809;47.418;19.080;2023-08-31T05:30:23;5.10;;;3.40;;
63653;SDS011;49809;47.418;19.080;2023-08-31T05:33:40;3.62;;;2.95;;
63653;SDS011;49809;47.418;19.080;2023-08-31T05:37:04;5.85;;;2.97;;
63653;SDS011;49809;47.418;19.080;2023-08-31T05:40:44;3.92;;;2.70;;
63653;SDS011;49809;47.418;19.080;2023-08-31T05:44:03;4.30;;;2.72;;
63653;SDS011;49809;47.418;19.080;2023-08-31T05:50:46;2.80;;;2.30;;
63653;SDS011;49809;47.418;19.080;2023-08-31T05:53:51;3.20;;;2.42;;
63653;SDS011;49809;47.418;19.080;2023-08-31T05:56:59;2.85;;;2.50;;
63653;SDS011;49809;47.418;19.080;2023-08-31T06:00:04;2.83;;;2.27;;
63653;SDS011;49809;47.418;19.080;2023-08-31T06:03:41;3.08;;;2.30;;
63653;SDS011;49809;47.418;19.080;2023-08-31T06:06:48;4.70;;;2.60;;
63653;SDS011;49809;47.418;19.080;2023-08-31T06:10:06;2.90;;;2.35;;
63653;SDS011;49809;47.418;19.080;2023-08-31T06:13:14;3.58;;;2.83;;
63653;SDS011;49809;47.418;19.080;2023-08-31T06:16:17;4.82;;;2.60;;
63653;SDS011;49809;47.418;19.080;2023-08-31T06:19:20;5.12;;;2.20;;
63653;SDS011;49809;47.418;19.080;2023-08-31T06:22:27;2.60;;;2.37;;
63653;SDS011;49809;47.418;19.080;2023-08-31T06:25:30;3.75;;;2.55;;
63653;SDS011;49809;47.418;19.080;2023-08-31T06:28:35;4.35;;;2.50;;
63653;SDS011;49809;47.418;19.080;2023-08-31T06:31:51;3.53;;;2.30;;
63653;SDS011;49809;47.418;19.080;2023-08-31T06:35:14;3.28;;;2.65;;
63653;SDS011;49809;47.418;19.080;2023-08-31T06:38:44;4.05;;;2.50;;
63653;SDS011;49809;47.418;19.080;2023-08-31T06:41:51;4.07;;;2.47;;
63653;SDS011;49809;47.418;19.080;2023-08-31T06:45:19;5.12;;;2.87;;
63653;SDS011;49809;47.418;19.080;2023-08-31T06:48:52;3.67;;;2.47;;
63653;SDS011;49809;47.418;19.080;2023-08-31T06:51:58;3.95;;;2.40;;
63653;SDS011;49809;47.418;19.080;2023-08-31T06:55:04;2.70;;;2.28;;
63653;SDS011;49809;47.418;19.080;2023-08-31T06:58:11;5.00;;;2.20;;
63653;SDS011;49809;47.418;19.080;2023-08-31T07:01:15;2.35;;;2.10;;
63653;SDS011;49809;47.418;19.080;2023-08-31T07:04:20;3.37;;;2.33;;
63653;SDS011;49809;47.418;19.080;2023-08-31T07:07:32;2.55;;;2.00;;
63653;SDS011;49809;47.418;19.080;2023-08-31T07:10:35;3.25;;;2.10;;
63653;SDS011;49809;47.418;19.080;2023-08-31T07:14:04;3.17;;;2.20;;
63653;SDS011;49809;47.418;19.080;2023-08-31T07:17:08;2.05;;;1.87;;
63653;SDS011;49809;47.418;19.080;2023-08-31T07:20:13;2.40;;;1.92;;
63653;SDS011;49809;47.418;19.080;2023-08-31T07:23:16;2.83;;;1.73;;
63653;SDS011;49809;47.418;19.080;2023-08-31T07:26:21;2.55;;;2.08;;
63653;SDS011;49809;47.418;19.080;2023-08-31T07:29:24;2.78;;;2.03;;
63653;SDS011;49809;47.418;19.080;2023-08-31T07:33:00;2.05;;;1.80;;
63653;SDS011;49809;47.418;19.080;2023-08-31T07:36:59;5.43;;;2.22;;
63653;SDS011;49809;47.418;19.080;2023-08-31T07:40:03;2.30;;;1.87;;
63653;SDS011;49809;47.418;19.080;2023-08-31T07:43:31;3.50;;;2.40;;
63653;SDS011;49809;47.418;19.080;2023-08-31T07:46:54;3.47;;;2.22;;
63653;SDS011;49809;47.418;19.080;2023-08-31T07:50:30;2.20;;;2.00;;
63653;SDS011;49809;47.418;19.080;2023-08-31T07:54:08;2.70;;;2.30;;
63653;SDS011;49809;47.418;19.080;2023-08-31T07:57:46;2.50;;;2.00;;
63653;SDS011;49809;47.418;19.080;2023-08-31T08:01:08;2.60;;;2.17;;
63653;SDS011;49809;47.418;19.080;2023-08-31T08:04:41;2.60;;;2.20;;
63653;SDS011;49809;47.418;19.080;2023-08-31T08:08:17;2.33;;;2.12;;
63653;SDS011;49809;47.418;19.080;2023-08-31T08:14:46;3.70;;;2.25;;
63653;SDS011;49809;47.418;19.080;2023-08-31T08:17:54;2.42;;;2.10;;
63653;SDS011;49809;47.418;19.080;2023-08-31T08:21:01;2.83;;;2.05;;
63653;SDS011;49809;47.418;19.080;2023-08-31T08:24:29;2.58;;;1.58;;
63653;SDS011;49809;47.418;19.080;2023-08-31T08:28:10;3.40;;;2.00;;
63653;SDS011;49809;47.418;19.080;2023-08-31T08:31:39;2.30;;;1.92;;
63653;SDS011;49809;47.418;19.080;2023-08-31T08:35:06;2.55;;;2.05;;
63653;SDS011;49809;47.418;19.080;2023-08-31T08:38:44;2.30;;;2.00;;
63653;SDS011;49809;47.418;19.080;2023-08-31T08:41:47;2.80;;;1.80;;
63653;SDS011;49809;47.418;19.080;2023-08-31T08:44:51;6.25;;;2.65;;
63653;SDS011;49809;47.418;19.080;2023-08-31T08:48:06;2.25;;;1.87;;
63653;SDS011;49809;47.418;19.080;2023-08-31T08:51:30;2.37;;;1.80;;
63653;SDS011;49809;47.418;19.080;2023-08-31T08:54:43;1.90;;;1.60;;
63653;SDS011;49809;47.418;19.080;2023-08-31T08:57:48;4.18;;;2.33;;
63653;SDS011;49809;47.418;19.080;2023-08-31T09:00:57;2.33;;;1.80;;
63653;SDS011;49809;47.418;19.080;2023-08-31T09:04:09;2.15;;;1.90;;
63653;SDS011;49809;47.418;19.080;2023-08-31T09:07:13;3.62;;;1.70;;
63653;SDS011;49809;47.418;19.080;2023-08-31T09:10:16;5.47;;;1.90;;
63653;SDS011;49809;47.418;19.080;2023-08-31T09:13:21;2.05;;;1.67;;
63653;SDS011;49809;47.418;19.080;2023-08-31T09:16:52;1.85;;;1.62;;
63653;SDS011;49809;47.418;19.080;2023-08-31T09:20:17;1.73;;;1.60;;
63653;SDS011;49809;47.418;19.080;2023-08-31T09:23:22;2.05;;;1.73;;
63653;SDS011;49809;47.418;19.080;2023-08-31T09:26:47;4.05;;;1.60;;
63653;SDS011;49809;47.418;19.080;2023-08-31T09:30:11;1.58;;;1.37;;
63653;SDS011;49809;47.418;19.080;2023-08-31T09:33:21;1.77;;;1.30;;
63653;SDS011;49809;47.418;19.080;2023-08-31T09:40:50;2.70;;;1.37;;
63653;SDS011;49809;47.418;19.080;2023-08-31T09:44:18;1.90;;;1.17;;
63653;SDS011;49809;47.418;19.080;2023-08-31T09:47:51;2.33;;;1.25;;
63653;SDS011;49809;47.418;19.080;2023-08-31T09:50:56;1.50;;;1.08;;
63653;SDS011;49809;47.418;19.080;2023-08-31T09:54:21;2.15;;;1.25;;
63653;SDS011;49809;47.418;19.080;2023-08-31T09:57:28;1.48;;;1.37;;
63653;SDS011;49809;47.418;19.080;2023-08-31T10:01:44;2.22;;;1.25;;
63653;SDS011;49809;47.418;19.080;2023-08-31T10:05:19;2.22;;;1.40;;
63653;SDS011;49809;47.418;19.080;2023-08-31T10:09:01;2.30;;;1.40;;
63653;SDS011;49809;47.418;19.080;2023-08-31T10:12:28;4.18;;;1.23;;
63653;SDS011;49809;47.418;19.080;2023-08-31T10:15:58;1.62;;;1.40;;
63653;SDS011;49809;47.418;19.080;2023-08-31T10:28:48;2.22;;;1.40;;
63653;SDS011;49809;47.418;19.080;2023-08-31T10:31:51;1.65;;;1.40;;
63653;SDS011;49809;47.418;19.080;2023-08-31T10:35:47;2.37;;;1.60;;
63653;SDS011;49809;47.418;19.080;2023-08-31T10:39:18;2.75;;;1.60;;
63653;SDS011;49809;47.418;19.080;2023-08-31T10:42:25;2.28;;;1.50;;
63653;SDS011;49809;47.418;19.080;2023-08-31T10:45:43;1.60;;;1.42;;
63653;SDS011;49809;47.418;19.080;2023-08-31T10:49:24;1.60;;;1.50;;
63653;SDS011;49809;47.418;19.080;2023-08-31T10:53:18;1.85;;;1.60;;
63653;SDS011;49809;47.418;19.080;2023-08-31T11:00:07;3.20;;;1.50;;
63653;SDS011;49809;47.418;19.080;2023-08-31T11:03:14;4.18;;;1.50;;
63653;SDS011;49809;47.418;19.080;2023-08-31T11:06:22;4.72;;;1.65;;
63653;SDS011;49809;47.418;19.080;2023-08-31T11:09:27;2.80;;;1.60;;
63653;SDS011;49809;47.418;19.080;2023-08-31T11:12:33;2.42;;;1.50;;
63653;SDS011;49809;47.418;19.080;2023-08-31T11:15:56;1.92;;;1.50;;
63653;SDS011;49809;47.418;19.080;2023-08-31T11:19:00;2.03;;;1.37;;
63653;SDS011;49809;47.418;19.080;2023-08-31T11:22:05;1.33;;;1.23;;
63653;SDS011;49809;47.418;19.080;2023-08-31T11:25:13;1.50;;;1.40;;
63653;SDS011;49809;47.418;19.080;2023-08-31T11:28:17;2.08;;;1.50;;
63653;SDS011;49809;47.418;19.080;2023-08-31T11:31:25;1.62;;;1.30;;
63653;SDS011;49809;47.418;19.080;2023-08-31T11:34:39;1.70;;;1.20;;
63653;SDS011;49809;47.418;19.080;2023-08-31T11:37:51;3.28;;;1.60;;
63653;SDS011;49809;47.418;19.080;2023-08-31T11:41:03;2.55;;;1.48;;
63653;SDS011;49809;47.418;19.080;2023-08-31T11:44:36;1.90;;;1.58;;
63653;SDS011;49809;47.418;19.080;2023-08-31T11:47:43;2.37;;;1.50;;
63653;SDS011;49809;47.418;19.080;2023-08-31T11:51:08;2.45;;;1.50;;
63653;SDS011;49809;47.418;19.080;2023-08-31T11:54:51;2.03;;;1.42;;
63653;SDS011;49809;47.418;19.080;2023-08-31T11:57:57;2.53;;;1.37;;
63653;SDS011;49809;47.418;19.080;2023-08-31T12:01:02;1.62;;;1.25;;
63653;SDS011;49809;47.418;19.080;2023-08-31T12:04:10;1.60;;;1.50;;
63653;SDS011;49809;47.418;19.080;2023-08-31T12:07:30;1.40;;;1.17;;
63653;SDS011;49809;47.418;19.080;2023-08-31T12:10:49;1.70;;;1.37;;
63653;SDS011;49809;47.418;19.080;2023-08-31T12:13:53;1.33;;;1.20;;
63653;SDS011;49809;47.418;19.080;2023-08-31T12:17:01;1.52;;;1.33;;
63653;SDS011;49809;47.418;19.080;2023-08-31T12:20:06;1.40;;;1.30;;
63653;SDS011;49809;47.418;19.080;2023-08-31T12:23:17;1.60;;;1.50;;
63653;SDS011;49809;47.418;19.080;2023-08-31T12:26:47;2.20;;;1.50;;
63653;SDS011;49809;47.418;19.080;2023-08-31T12:30:16;3.22;;;1.50;;
63653;SDS011;49809;47.418;19.080;2023-08-31T12:33:23;2.15;;;1.42;;
63653;SDS011;49809;47.418;19.080;2023-08-31T12:36:30;9.82;;;1.70;;
63653;SDS011;49809;47.418;19.080;2023-08-31T12:39:34;2.33;;;1.70;;
63653;SDS011;49809;47.418;19.080;2023-08-31T12:42:39;2.60;;;1.53;;
63653;SDS011;49809;47.418;19.080;2023-08-31T12:46:05;2.55;;;1.48;;
63653;SDS011;49809;47.418;19.080;2023-08-31T12:49:09;1.55;;;1.40;;
63653;SDS011;49809;47.418;19.080;2023-08-31T12:52:41;1.62;;;1.50;;
63653;SDS011;49809;47.418;19.080;2023-08-31T12:55:59;1.85;;;1.50;;
63653;SDS011;49809;47.418;19.080;2023-08-31T12:59:07;2.17;;;1.77;;
63653;SDS011;49809;47.418;19.080;2023-08-31T13:02:12;2.40;;;1.60;;
63653;SDS011;49809;47.418;19.080;2023-08-31T13:05:45;2.28;;;1.90;;
63653;SDS011;49809;47.418;19.080;2023-08-31T13:09:23;3.47;;;2.10;;
63653;SDS011;49809;47.418;19.080;2023-08-31T13:12:58;1.87;;;1.77;;
63653;SDS011;49809;47.418;19.080;2023-08-31T13:16:33;2.53;;;2.30;;
63653;SDS011;49809;47.418;19.080;2023-08-31T13:20:09;1.90;;;1.70;;
63653;SDS011;49809;47.418;19.080;2023-08-31T13:23:40;3.47;;;1.80;;
63653;SDS011;49809;47.418;19.080;2023-08-31T13:27:26;3.55;;;1.52;;
63653;SDS011;49809;47.418;19.080;2023-08-31T13:30:49;2.33;;;1.60;;
63653;SDS011;49809;47.418;19.080;2023-08-31T13:34:24;1.77;;;1.60;;
63653;SDS011;49809;47.418;19.080;2023-08-31T13:37:58;1.83;;;1.70;;
63653;SDS011;49809;47.418;19.080;2023-08-31T13:41:33;2.42;;;1.65;;
63653;SDS011;49809;47.418;19.080;2023-08-31T13:45:01;1.58;;;1.48;;
63653;SDS011;49809;47.418;19.080;2023-08-31T13:48:39;2.08;;;1.60;;
63653;SDS011;49809;47.418;19.080;2023-08-31T13:52:07;2.03;;;1.60;;
63653;SDS011;49809;47.418;19.080;2023-08-31T13:55:56;3.00;;;1.50;;
63653;SDS011;49809;47.418;19.080;2023-08-31T13:59:01;2.80;;;1.80;;
63653;SDS011;49809;47.418;19.080;2023-08-31T14:02:16;2.23;;;1.70;;
63653;SDS011;49809;47.418;19.080;2023-08-31T14:05:21;2.03;;;1.60;;
63653;SDS011;49809;47.418;19.080;2023-08-31T14:08:45;2.35;;;1.80;;
63653;SDS011;49809;47.418;19.080;2023-08-31T14:11:50;2.15;;;1.90;;
63653;SDS011;49809;47.418;19.080;2023-08-31T14:14:58;2.30;;;1.80;;
63653;SDS011;49809;47.418;19.080;2023-08-31T14:18:32;2.15;;;1.75;;
63653;SDS011;49809;47.418;19.080;2023-08-31T14:21:47;2.42;;;1.85;;
63653;SDS011;49809;47.418;19.080;2023-08-31T14:25:09;2.53;;;1.58;;
63653;SDS011;49809;47.418;19.080;2023-08-31T14:28:48;2.08;;;1.70;;
63653;SDS011;49809;47.418;19.080;2023-08-31T14:31:52;2.47;;;1.50;;
63653;SDS011;49809;47.418;19.080;2023-08-31T14:34:57;2.00;;;1.45;;
63653;SDS011;49809;47.418;19.080;2023-08-31T14:38:00;2.95;;;1.50;;
63653;SDS011;49809;47.418;19.080;2023-08-31T14:41:24;2.25;;;1.50;;
63653;SDS011;49809;47.418;19.080;2023-08-31T14:44:49;2.60;;;1.65;;
63653;SDS011;49809;47.418;19.080;2023-08-31T14:47:58;2.08;;;1.60;;
63653;SDS011;49809;47.418;19.080;2023-08-31T14:51:33;1.70;;;1.55;;
63653;SDS011;49809;47.418;19.080;2023-08-31T14:54:36;3.83;;;1.60;;
63653;SDS011;49809;47.418;19.080;2023-08-31T14:57:41;1.80;;;1.27;;
63653;SDS011;49809;47.418;19.080;2023-08-31T15:00:45;1.80;;;1.48;;
63653;SDS011;49809;47.418;19.080;2023-08-31T15:03:49;3.85;;;1.60;;
63653;SDS011;49809;47.418;19.080;2023-08-31T15:07:12;3.50;;;1.70;;
63653;SDS011;49809;47.418;19.080;2023-08-31T15:10:17;1.23;;;1.12;;
63653;SDS011;49809;47.418;19.080;2023-08-31T15:13:21;1.62;;;1.40;;
63653;SDS011;49809;47.418;19.080;2023-08-31T15:19:54;2.10;;;1.40;;
63653;SDS011;49809;47.418;19.080;2023-08-31T15:23:31;3.03;;;1.50;;
63653;SDS011;49809;47.418;19.080;2023-08-31T15:26:56;1.90;;;1.50;;
63653;SDS011;49809;47.418;19.080;2023-08-31T15:30:22;1.83;;;1.50;;
63653;SDS011;49809;47.418;19.080;2023-08-31T15:33:26;2.42;;;1.60;;
63653;SDS011;49809;47.418;19.080;2023-08-31T15:36:34;1.85;;;1.40;;
63653;SDS011;49809;47.418;19.080;2023-08-31T15:39:38;1.58;;;1.48;;
63653;SDS011;49809;47.418;19.080;2023-08-31T15:43:01;2.20;;;1.48;;
63653;SDS011;49809;47.418;19.080;2023-08-31T15:46:05;3.08;;;1.50;;
63653;SDS011;49809;47.418;19.080;2023-08-31T15:49:09;1.62;;;1.52;;
63653;SDS011;49809;47.418;19.080;2023-08-31T15:52:32;3.12;;;1.67;;
63653;SDS011;49809;47.418;19.080;2023-08-31T15:55:39;2.03;;;1.60;;
63653;SDS011;49809;47.418;19.080;2023-08-31T15:58:42;4.45;;;1.90;;
63653;SDS011;49809;47.418;19.080;2023-08-31T16:01:46;2.05;;;1.50;;
63653;SDS011;49809;47.418;19.080;2023-08-31T16:05:18;2.62;;;1.40;;
63653;SDS011;49809;47.418;19.080;2023-08-31T16:08:23;3.65;;;1.48;;
63653;SDS011;49809;47.418;19.080;2023-08-31T16:11:29;4.43;;;1.50;;
63653;SDS011;49809;47.418;19.080;2023-08-31T16:14:39;2.87;;;1.50;;
63653;SDS011;49809;47.418;19.080;2023-08-31T16:17:44;4.50;;;1.77;;
63653;SDS011;49809;47.418;19.080;2023-08-31T16:21:01;2.20;;;1.58;;
63653;SDS011;49809;47.418;19.080;2023-08-31T16:24:09;4.55;;;1.62;;
63653;SDS011;49809;47.418;19.080;2023-08-31T16:27:17;2.15;;;1.70;;
63653;SDS011;49809;47.418;19.080;2023-08-31T16:30:44;2.40;;;1.55;;
63653;SDS011;49809;47.418;19.080;2023-08-31T16:35:28;2.05;;;1.50;;
63653;SDS011;49809;47.418;19.080;2023-08-31T16:39:27;2.87;;;1.60;;
63653;SDS011;49809;47.418;19.080;2023-08-31T16:42:40;1.73;;;1.48;;
63653;SDS011;49809;47.418;19.080;2023-08-31T16:47:00;2.62;;;1.52;;
63653;SDS011;49809;47.418;19.080;2023-08-31T16:50:33;2.37;;;1.50;;
63653;SDS011;49809;47.418;19.080;2023-08-31T16:53:43;2.25;;;1.50;;
63653;SDS011;49809;47.418;19.080;2023-08-31T16:56:53;3.78;;;1.50;;
63653;SDS011;49809;47.418;19.080;2023-08-31T17:00:23;25.12;;;4.15;;
63653;SDS011;49809;47.418;19.080;2023-08-31T17:03:28;1.85;;;1.35;;
63653;SDS011;49809;47.418;19.080;2023-08-31T17:07:11;2.65;;;1.55;;
63653;SDS011;49809;47.418;19.080;2023-08-31T17:10:18;2.17;;;1.45;;
63653;SDS011;49809;47.418;19.080;2023-08-31T17:13:50;1.87;;;1.45;;
63653;SDS011;49809;47.418;19.080;2023-08-31T17:17:13;1.73;;;1.48;;
63653;SDS011;49809;47.418;19.080;2023-08-31T17:20:19;2.85;;;1.42;;
63653;SDS011;49809;47.418;19.080;2023-08-31T17:23:24;3.47;;;1.62;;
63653;SDS011;49809;47.418;19.080;2023-08-31T17:26:29;2.80;;;1.62;;
63653;SDS011;49809;47.418;19.080;2023-08-31T17:30:02;4.12;;;2.50;;
63653;SDS011;49809;47.418;19.080;2023-08-31T17:33:33;2.55;;;1.80;;
63653;SDS011;49809;47.418;19.080;2023-08-31T17:36:37;3.25;;;1.60;;
63653;SDS011;49809;47.418;19.080;2023-08-31T17:39:43;2.25;;;1.80;;
63653;SDS011;49809;47.418;19.080;2023-08-31T17:50:48;3.62;;;1.80;;
63653;SDS011;49809;47.418;19.080;2023-08-31T17:54:20;2.62;;;1.85;;
63653;SDS011;49809;47.418;19.080;2023-08-31T17:58:08;1.98;;;1.48;;
63653;SDS011;49809;47.418;19.080;2023-08-31T18:01:41;3.10;;;2.08;;
63653;SDS011;49809;47.418;19.080;2023-08-31T18:05:26;5.63;;;2.10;;
63653;SDS011;49809;47.418;19.080;2023-08-31T18:13:35;3.55;;;1.77;;
63653;SDS011;49809;47.418;19.080;2023-08-31T18:16:53;3.00;;;1.90;;
63653;SDS011;49809;47.418;19.080;2023-08-31T18:20:18;3.58;;;2.15;;
63653;SDS011;49809;47.418;19.080;2023-08-31T18:23:46;4.07;;;2.10;;
63653;SDS011;49809;47.418;19.080;2023-08-31T18:27:09;3.90;;;2.17;;
63653;SDS011;49809;47.418;19.080;2023-08-31T18:30:33;2.80;;;2.00;;
63653;SDS011;49809;47.418;19.080;2023-08-31T18:33:56;2.75;;;1.92;;
63653;SDS011;49809;47.418;19.080;2023-08-31T18:37:20;3.78;;;2.00;;
63653;SDS011;49809;47.418;19.080;2023-08-31T18:40:45;4.78;;;2.37;;
63653;SDS011;49809;47.418;19.080;2023-08-31T18:44:27;4.07;;;2.10;;
63653;SDS011;49809;47.418;19.080;2023-08-31T18:48:10;4.03;;;1.87;;
63653;SDS011;49809;47.418;19.080;2023-08-31T18:51:35;4.55;;;2.45;;
63653;SDS011;49809;47.418;19.080;2023-08-31T18:54:56;5.37;;;2.92;;
63653;SDS011;49809;47.418;19.080;2023-08-31T18:58:43;4.00;;;2.60;;
63653;SDS011;49809;47.418;19.080;2023-08-31T19:01:51;5.12;;;2.62;;
63653;SDS011;49809;47.418;19.080;2023-08-31T19:05:09;7.93;;;3.95;;
63653;SDS011;49809;47.418;19.080;2023-08-31T19:08:37;7.50;;;2.92;;
63653;SDS011;49809;47.418;19.080;2023-08-31T19:11:44;5.05;;;2.92;;
63653;SDS011;49809;47.418;19.080;2023-08-31T19:15:07;3.53;;;2.47;;
63653;SDS011;49809;47.418;19.080;2023-08-31T19:18:17;5.05;;;2.65;;
63653;SDS011;49809;47.418;19.080;2023-08-31T19:21:40;6.35;;;2.78;;
63653;SDS011;49809;47.418;19.080;2023-08-31T19:25:13;4.05;;;2.60;;
63653;SDS011;49809;47.418;19.080;2023-08-31T19:28:42;2.78;;;2.37;;
63653;SDS011;49809;47.418;19.080;2023-08-31T19:32:13;3.00;;;2.50;;
63653;SDS011;49809;47.418;19.080;2023-08-31T19:35:56;3.95;;;2.70;;
63653;SDS011;49809;47.418;19.080;2023-08-31T19:39:22;4.37;;;2.50;;
63653;SDS011;49809;47.418;19.080;2023-08-31T19:46:16;3.08;;;2.28;;
63653;SDS011;49809;47.418;19.080;2023-08-31T19:49:58;5.82;;;2.85;;
63653;SDS011;49809;47.418;19.080;2023-08-31T19:53:22;3.60;;;2.28;;
63653;SDS011;49809;47.418;19.080;2023-08-31T19:56:49;5.85;;;2.50;;
63653;SDS011;49809;47.418;19.080;2023-08-31T20:00:25;5.28;;;2.60;;
63653;SDS011;49809;47.418;19.080;2023-08-31T20:04:01;4.20;;;2.33;;
63653;SDS011;49809;47.418;19.080;2023-08-31T20:07:16;3.80;;;2.20;;
63653;SDS011;49809;47.418;19.080;2023-08-31T20:11:02;3.85;;;2.30;;
63653;SDS011;49809;47.418;19.080;2023-08-31T20:14:30;3.05;;;2.00;;
63653;SDS011;49809;47.418;19.080;2023-08-31T20:17:54;2.42;;;1.80;;
63653;SDS011;49809;47.418;19.080;2023-08-31T20:21:24;2.15;;;1.90;;
63653;SDS011;49809;47.418;19.080;2023-08-31T20:24:30;3.15;;;2.15;;
63653;SDS011;49809;47.418;19.080;2023-08-31T20:27:36;3.03;;;1.87;;
63653;SDS011;49809;47.418;19.080;2023-08-31T20:31:08;3.17;;;1.73;;
63653;SDS011;49809;47.418;19.080;2023-08-31T20:34:16;4.68;;;1.85;;
63653;SDS011;49809;47.418;19.080;2023-08-31T20:37:47;3.40;;;2.03;;
63653;SDS011;49809;47.418;19.080;2023-08-31T20:40:51;3.30;;;1.95;;
63653;SDS011;49809;47.418;19.080;2023-08-31T20:44:01;3.25;;;2.00;;
63653;SDS011;49809;47.418;19.080;2023-08-31T20:47:24;3.35;;;1.77;;
63653;SDS011;49809;47.418;19.080;2023-08-31T20:51:01;4.05;;;2.10;;
63653;SDS011;49809;47.418;19.080;2023-08-31T20:54:10;4.95;;;1.98;;
63653;SDS011;49809;47.418;19.080;2023-08-31T20:57:33;3.90;;;1.80;;
63653;SDS011;49809;47.418;19.080;2023-08-31T21:01:04;4.03;;;2.10;;